Relevés horaires Eggishorn (Suisse)


Relevés horaires à Eggishorn - Samedi 16 Janv. 2021
Heure UTC1 Température [°C] Vent [km/h] Hum. [%] Pres.4 [hPa] Visi. [Km] Nébu. [octa] Préc.5 [mm] Cond.
2m. Res. Ros. Dir.2 Vit. Moy. Raf.3
23:00 -10.6 -20.2 -11.2 NNO 29.6 -- 53.7 95 700(-1.2/3h) -- -- -- --
22:00 -11.4 -17.9 -12.6 ONO 13.0 -- 35.2 91 700(-0.9/3h) -- -- -- --
21:00 -12.5 -18.6 -15.2 OSO 11.1 -- 44.4 80 700(-0.8/3h) -- -- -- --
20:00 -11.8 -21.2 -20.0 O 25.9 -- 44.4 50 700(-0.5/3h) -- -- -- --
19:00 -11.5 -19.4 -22.8 NO 18.5 -- 44.4 38 700(-0.4/3h) -- -- -- --
18:00 -11.7 -19.7 -25.0 NO 18.5 -- 66.7 32 700(-0.2/3h) -- -- -- --
17:00 -11.6 -22.3 -25.9 NNO 35.2 -- 64.8 29 700(0.0/3h) -- -- -- --
16:00 -11.4 -21.6 -24.5 NNO 31.5 -- 59.3 33 700(0.0/3h) -- -- -- --
15:00 -10.8 -21 -24.4 NNO 33.3 -- 66.7 31 700(-0.5/3h) -- -- -- --
14:00 -10.8 -21.9 -22.7 NNO 40.7 -- 66.7 37 700(-0.9/3h) -- -- -- --
13:00 -9.9 -20.3 -23.4 NNO 37.0 -- 53.7 32 700(-0.9/3h) -- -- -- --
12:00 -10.5 -18.6 -23.0 NNO 20.4 -- 66.7 35 700(0.0/3h) -- -- -- --
11:00 -12.4 -22 -20.9 NNO 25.9 -- 53.7 49 700(0.8/3h) -- -- -- --
10:00 -12.4 -19.7 -20.6 NO 14.8 -- 61.1 50 700(1.0/3h) -- -- -- --
09:00 -12.4 -23.8 -21.6 NNO 38.9 -- 66.7 46 700(0.8/3h) -- -- -- --
08:00 -12.9 -24 -22.4 NNO 35.2 -- 61.1 45 700(0.3/3h) -- -- -- --
07:00 -14.6 -26 -20.6 NNO 33.3 -- 59.3 60 700(0.4/3h) -- -- -- --
06:00 -13.6 -24.7 -21.1 NNO 33.3 -- 51.9 53 700(0.1/3h) -- -- -- --
05:00 -14.6 -24.5 -19.5 N 24.1 -- 42.6 66 700(0.1/3h) -- -- -- --
04:00 -15.2 -24.5 -18.1 NNO 20.4 -- 42.6 78 700(0.1/3h) -- -- -- --
03:00 -14.2 -23.6 -19.9 NNO 22.2 -- 37.0 62 700(0.2/3h) -- -- -- --
02:00 -15.8 -19.9 -15.8 ONO 5.6 -- 31.5 100 700(0.2/3h) -- -- -- --
01:00 -15.2 -23.6 -18.1 NO 16.7 -- 35.2 78 700(0.1/3h) -- -- -- --
00:00 -15.1 -21.8 -17.1 NO 11.1 -- 31.5 85 700(0.3/3h) -- -- -- --

1 Coordinated Universal Time. Actuellement il est 06:00 locale et 04:00 UTC.

2 Le vent souffle depuis la direction indiquée vers la direction oposée.

3 Les rafales max. sont disponible 40 min après l'heure du relevé.

4 Pour les stations d'altitude (plus de 600m) le géopotentiel du niveau le plus proche de la pression obligatoire est indiqué.

5 Les stations disposant d'un diffuseur peuvent indiquer "trace". Cela signifie que des précipitations ont touchés le sol mais que la quantité est inférieure à 0.1 mm.

Copyright

Les données affichées sur cette page sont la propriété exclusive de Météo Suisse.

Récapitulatif de la journée
Température [°C] Vent [km/h] Ensoleillement4 [h] Precipitations totale5 [mm] Pression [Hpa]
Min1 Max.2 Moy.3 Max. Min Max.
-16.3 -9.8 0 66.7 6 h 48 min 0 700.0 700.0

1 Température minimale relevée entre 18:00 UTC la veille et 18:00 UTC le jour donné.

2 Température maximale relevée entre 06:00 UTC le jour donné et 06:00 UTC le lendemain.

3 Vent moyen de la journée basé sur les relevés horaires.

4 Ensoleillement en heures relevé entre 06:00 UTC la veille et 06:00 UTC le jour donné.

5 Précipitations totales tombées entre 06:00 UTC la jour donné et 06:00 UTC le lendemain.

Graphiques horaires